Terminal Aerodrome Forecast
Issued by NWS Spokane, WA

Home | Current Version | Previous Version | Text Only | Print | Product List | Glossary On
Versions: 1 2 3 4 5 6 7 8 9 10 11 12 13 14 15 16 17 18 19 20 21 22 23 24 25 26 27 28 29 30 31 32 33 34 35 36 37 38 39 40 41 42 43 44 45 46 47 48 49 50
201
FTUS46 KOTX 270158 AAA
TAFGEG
TAF AMD
KGEG 270158Z 2702/2724 00000KT 1SM -SHSN BR BKN006 OVC010
     FM270500 30005KT 3SM BR FEW005 OVC009
     FM270800 33004KT 2SM BCFG SCT001 BKN008
     FM271300 31003KT 1SM BCFG SCT001 OVC006
     FM272100 24006KT 2SM -SN BR OVC015=

USA.gov is the U.S. government's official web portal to all federal, state and local government web resources and services.